Time;durP1;ratioP1;P1;durP2;ratioP2;P2;SDS_P1;SDS_P2;PMS_P1;PMS_P2;Temp;Humidity;BMP_temperature;BMP_pressure;BME280_temperature;BME280_humidity;BME280_pressure;Samples;Min_cycle;Max_cycle;Signal;HPM_P1;HPM_P2
2021/05/03 00:02:25;;;;;;;8.35;4.55;;;;;;;7.72;56.34;102028.22;4938484;29;20035;-54
2021/05/03 00:04:53;;;;;;;9.02;4.90;;;;;;;7.71;56.48;102032.00;4937862;29;20406;-52
2021/05/03 00:07:20;;;;;;;7.68;4.43;;;;;;;7.69;56.28;102030.31;4938268;29;20052;-52
2021/05/03 00:09:47;;;;;;;6.25;3.60;;;;;;;7.69;55.74;102014.03;4938045;29;20491;-52
2021/05/03 00:12:14;;;;;;;7.47;4.90;;;;;;;7.72;56.21;102020.09;4937838;29;20039;-51
2021/05/03 00:14:41;;;;;;;8.73;4.88;;;;;;;7.76;56.50;102015.88;4936725;29;20060;-52
2021/05/03 00:17:08;;;;;;;7.32;4.30;;;;;;;7.78;55.79;102021.94;4938075;29;20091;-49
2021/05/03 00:19:38;;;;;;;6.75;4.25;;;;;;;7.74;55.51;102012.56;4937623;29;20076;-51
2021/05/03 00:22:05;;;;;;;8.20;4.45;;;;;;;7.70;56.18;102014.91;4937920;29;20490;-52
2021/05/03 00:24:32;;;;;;;6.45;3.90;;;;;;;7.71;55.85;102021.16;4937906;29;20406;-53
2021/05/03 00:26:59;;;;;;;6.97;3.65;;;;;;;7.71;55.66;102023.84;4937643;29;20064;-52
2021/05/03 00:29:26;;;;;;;7.13;3.78;;;;;;;7.68;56.00;102015.09;4937660;29;20044;-55
2021/05/03 00:31:53;;;;;;;7.10;3.95;;;;;;;7.70;55.87;102023.03;4937563;29;20036;-50
2021/05/03 00:34:21;;;;;;;5.90;3.40;;;;;;;7.68;56.05;102017.81;4937718;29;20043;-51
2021/05/03 00:36:48;;;;;;;7.60;3.97;;;;;;;7.67;55.96;102024.31;4937746;29;20506;-50
2021/05/03 00:39:15;;;;;;;7.07;3.65;;;;;;;7.68;56.69;102027.84;4937668;29;20047;-55
2021/05/03 00:41:42;;;;;;;7.10;3.60;;;;;;;7.64;55.92;102027.44;4938027;29;20087;-55
2021/05/03 00:44:10;;;;;;;8.57;4.05;;;;;;;7.62;56.13;102023.28;4938410;29;20035;-56
2021/05/03 00:46:38;;;;;;;6.00;3.70;;;;;;;7.60;56.84;102019.94;4938044;29;20063;-52
2021/05/03 00:49:06;;;;;;;6.35;3.65;;;;;;;7.57;56.41;102026.63;4938463;29;20040;-53
2021/05/03 00:51:34;;;;;;;9.70;4.15;;;;;;;7.56;56.72;102030.41;4938272;29;20494;-56
2021/05/03 00:54:02;;;;;;;7.15;3.63;;;;;;;7.54;56.46;102037.94;4937152;29;20044;-53
2021/05/03 00:56:32;;;;;;;6.90;3.58;;;;;;;7.51;57.13;102027.53;4937432;29;20054;-54
2021/05/03 00:59:06;;;;;;;6.03;3.63;;;;;;;7.50;56.67;102023.13;4937201;29;20046;-53
2021/05/03 01:01:33;;;;;;;7.45;3.47;;;;;;;7.50;56.63;102031.28;4935906;29;20096;-56
2021/05/03 01:04:01;;;;;;;8.73;4.45;;;;;;;7.52;56.82;102031.91;4936848;29;20044;-56
2021/05/03 01:06:28;;;;;;;5.45;3.53;;;;;;;7.54;56.46;102032.50;4937271;29;20044;-54
2021/05/03 01:08:55;;;;;;;8.35;4.03;;;;;;;7.53;56.79;102025.44;4935998;29;20059;-56
2021/05/03 01:11:22;;;;;;;6.50;3.72;;;;;;;7.55;57.54;102023.34;4936585;29;20043;-55
2021/05/03 01:13:50;;;;;;;6.43;3.70;;;;;;;7.60;56.90;102018.09;4937198;29;20075;-56
2021/05/03 01:16:17;;;;;;;7.03;4.07;;;;;;;7.63;56.64;102003.25;4951889;29;20376;-55
2021/05/03 01:18:48;;;;;;;6.95;3.65;;;;;;;7.66;56.06;102013.66;4936645;29;20131;-52
2021/05/03 01:21:27;;;;;;;6.85;4.00;;;;;;;7.64;56.87;102013.88;4936970;29;20052;-50
2021/05/03 01:23:55;;;;;;;6.68;3.75;;;;;;;7.63;56.64;102014.94;4936610;29;20040;-53
2021/05/03 01:26:22;;;;;;;5.95;3.42;;;;;;;7.63;55.87;102017.66;4935633;29;20048;-56
2021/05/03 01:28:50;;;;;;;7.53;3.22;;;;;;;7.60;56.16;102009.09;4936826;29;20056;-55
2021/05/03 01:31:17;;;;;;;6.25;3.40;;;;;;;7.56;56.36;102006.00;4936812;29;20047;-52
2021/05/03 01:33:44;;;;;;;8.13;3.70;;;;;;;7.51;56.54;102008.53;4928923;29;20515;-54
2021/05/03 01:36:12;;;;;;;5.28;3.38;;;;;;;7.51;56.64;102018.56;4936428;29;20031;-53
2021/05/03 01:38:39;;;;;;;8.38;3.75;;;;;;;7.51;56.70;102008.53;4936104;29;20494;-54
2021/05/03 01:41:06;;;;;;;5.25;3.00;;;;;;;7.47;56.38;102010.84;4936338;29;20392;-54
2021/05/03 01:43:33;;;;;;;5.40;3.40;;;;;;;7.48;56.14;102017.13;4936282;29;20087;-52
2021/05/03 01:46:01;;;;;;;6.82;4.20;;;;;;;7.47;56.63;102004.59;4936100;29;20074;-55
2021/05/03 01:48:30;;;;;;;5.25;3.50;;;;;;;7.43;56.34;102003.38;4936529;29;20059;-55
2021/05/03 01:50:59;;;;;;;7.85;3.53;;;;;;;7.42;56.33;102001.72;4935842;29;20047;-55
2021/05/03 01:53:27;;;;;;;5.35;3.33;;;;;;;7.40;56.31;102001.09;4935770;29;20406;-51
2021/05/03 01:55:56;;;;;;;5.88;3.42;;;;;;;7.37;57.08;102009.69;4936116;29;20039;-53
2021/05/03 01:58:25;;;;;;;5.63;3.45;;;;;;;7.33;56.51;102009.25;4936243;29;20043;-53
2021/05/03 02:00:52;;;;;;;6.35;3.53;;;;;;;7.33;57.24;102006.56;4936281;29;20111;-53
2021/05/03 02:03:22;;;;;;;6.85;3.65;;;;;;;7.33;57.13;102011.16;4934981;29;20048;-53
2021/05/03 02:06:01;;;;;;;6.63;3.30;;;;;;;7.32;56.79;102017.63;4935473;29;20077;-56
2021/05/03 02:08:31;;;;;;;5.97;3.33;;;;;;;7.32;57.02;102007.63;4935571;29;20060;-51
2021/05/03 02:10:58;;;;;;;7.15;3.53;;;;;;;7.29;57.16;102013.47;4935701;29;20051;-52
2021/05/03 02:13:26;;;;;;;6.72;3.45;;;;;;;7.28;56.81;102010.97;4935983;29;20491;-51
2021/05/03 02:15:54;;;;;;;6.68;3.50;;;;;;;7.24;56.68;102011.41;4935893;29;20050;-55
2021/05/03 02:18:21;;;;;;;6.93;3.60;;;;;;;7.20;57.01;102002.03;4935635;29;20082;-52
2021/05/03 02:20:48;;;;;;;4.93;3.30;;;;;;;7.19;57.43;102004.97;4935563;29;20952;-55
2021/05/03 02:23:15;;;;;;;7.43;3.22;;;;;;;7.12;57.12;102002.31;4935670;29;20035;-56
2021/05/03 02:25:43;;;;;;;7.30;3.58;;;;;;;7.07;57.92;102002.13;4935767;29;20047;-54
2021/05/03 02:28:11;;;;;;;7.25;3.80;;;;;;;7.09;57.96;101991.03;4935679;29;20039;-53
2021/05/03 02:30:39;;;;;;;6.82;3.72;;;;;;;7.11;57.34;101992.50;4935588;29;20075;-53
2021/05/03 02:33:06;;;;;;;5.72;3.70;;;;;;;7.10;57.22;101998.97;4935656;29;20044;-52
2021/05/03 02:35:34;;;;;;;6.78;3.40;;;;;;;7.08;57.89;101990.22;4935259;29;20114;-53
2021/05/03 02:38:07;;;;;;;8.25;3.65;;;;;;;7.10;57.86;101993.56;4934394;29;20491;-54
2021/05/03 02:40:36;;;;;;;6.38;3.63;;;;;;;7.11;57.63;101987.06;4935313;29;20043;-53
2021/05/03 02:43:04;;;;;;;5.18;3.28;;;;;;;7.15;57.45;101980.19;4935203;29;20047;-53
2021/05/03 02:45:32;;;;;;;6.85;4.07;;;;;;;7.14;57.18;101981.22;4935416;29;20036;-53
2021/05/03 02:48:00;;;;;;;8.18;3.75;;;;;;;7.12;57.02;101983.34;4934529;29;20043;-56
2021/05/03 02:50:30;;;;;;;6.43;3.58;;;;;;;7.09;57.74;101986.44;4934610;29;20052;-53
2021/05/03 02:52:57;;;;;;;5.72;3.33;;;;;;;7.09;57.48;101986.44;4949945;29;20044;-53
2021/05/03 02:55:24;;;;;;;10.05;3.90;;;;;;;7.08;57.63;101989.41;4934877;29;20059;-53
2021/05/03 02:57:55;;;;;;;7.43;3.65;;;;;;;7.06;57.58;101986.88;4935155;29;20044;-53
2021/05/03 03:00:32;;;;;;;7.40;3.40;;;;;;;7.10;57.44;101988.13;4935331;29;20071;-53
2021/05/03 03:03:00;;;;;;;4.82;3.22;;;;;;;7.11;57.40;101984.38;4935095;29;20109;-52
2021/05/03 03:05:28;;;;;;;5.75;3.47;;;;;;;7.08;57.64;101981.25;4934771;29;20126;-50
2021/05/03 03:08:01;;;;;;;7.93;4.18;;;;;;;7.06;57.32;101976.06;4935141;29;20048;-53
2021/05/03 03:10:29;;;;;;;7.78;3.72;;;;;;;7.04;57.33;101972.72;4935334;29;20048;-52
2021/05/03 03:12:57;;;;;;;6.78;3.65;;;;;;;7.01;58.06;101975.88;4935122;29;20052;-51
2021/05/03 03:15:29;;;;;;;6.85;3.80;;;;;;;6.97;57.36;101977.34;4935156;29;20543;-53
2021/05/03 03:17:56;;;;;;;9.40;4.03;;;;;;;6.94;58.13;101972.34;4934817;29;20134;-52
2021/05/03 03:20:23;;;;;;;6.10;3.60;;;;;;;6.90;57.25;101973.81;4936731;29;20118;-57
2021/05/03 03:22:51;;;;;;;5.07;3.35;;;;;;;6.85;57.73;101970.94;4939282;29;20052;-57
2021/05/03 03:25:18;;;;;;;8.63;3.88;;;;;;;6.82;58.20;101975.72;4939193;29;20087;-57
2021/05/03 03:27:45;;;;;;;9.20;3.75;;;;;;;6.82;58.14;101970.31;4938218;29;20111;-56
2021/05/03 03:30:14;;;;;;;7.95;3.85;;;;;;;6.82;57.99;101975.72;4935231;29;20561;-53
2021/05/03 03:32:45;;;;;;;7.53;3.42;;;;;;;6.81;58.09;101974.09;4936039;29;20095;-56
2021/05/03 03:35:16;;;;;;;7.05;3.83;;;;;;;6.81;57.93;101968.66;4938414;29;20071;-54
2021/05/03 03:37:44;;;;;;;6.70;3.78;;;;;;;6.81;57.93;101976.78;4938747;29;20078;-52
2021/05/03 03:40:13;;;;;;;8.80;3.75;;;;;;;6.81;57.68;101970.56;4953247;29;20103;-53
2021/05/03 03:42:42;;;;;;;5.72;3.40;;;;;;;6.77;58.07;101966.59;4938839;29;20043;-53
2021/05/03 03:45:10;;;;;;;7.00;3.85;;;;;;;6.75;58.27;101969.50;4938558;29;20071;-50
2021/05/03 03:47:38;;;;;;;8.63;3.90;;;;;;;6.76;57.96;101973.91;4938496;29;20058;-54
2021/05/03 03:50:06;;;;;;;5.68;3.38;;;;;;;6.79;57.80;101967.22;4938429;29;20522;-54
2021/05/03 03:52:34;;;;;;;7.85;3.70;;;;;;;6.78;57.90;101966.41;4938514;29;20510;-53
2021/05/03 03:55:02;;;;;;;6.43;3.80;;;;;;;6.79;57.92;101970.75;4938654;29;20047;-55
2021/05/03 03:57:30;;;;;;;6.65;3.60;;;;;;;6.79;58.00;101962.63;4938133;29;20505;-53
2021/05/03 03:59:58;;;;;;;7.40;3.88;;;;;;;6.78;57.89;101969.09;4938331;29;20526;-55
2021/05/03 04:02:28;;;;;;;8.18;3.95;;;;;;;6.82;57.62;101969.50;4937835;29;20499;-55
2021/05/03 04:07:36;;;;;;;10.43;3.72;;;;;;;6.80;57.39;101972.41;4938219;29;20056;-53
2021/05/03 04:10:24;;;;;;;6.25;3.45;;;;;;;6.80;58.05;101971.56;4938010;29;20055;-54
2021/05/03 04:26:16;;;;;;;6.57;4.03;;;;;;;6.86;57.62;101967.19;4938019;29;20044;-55
2021/05/03 04:28:44;;;;;;;7.10;3.75;;;;;;;6.85;57.60;101970.94;4938069;29;20087;-53
2021/05/03 04:31:12;;;;;;;7.35;4.13;;;;;;;6.88;57.47;101960.53;4937460;29;20047;-54
2021/05/03 04:33:39;;;;;;;5.93;3.78;;;;;;;6.87;57.41;101963.44;4937504;29;20648;-53
2021/05/03 04:36:08;;;;;;;7.53;4.07;;;;;;;6.81;57.77;101957.84;4937464;29;20044;-55
2021/05/03 04:38:35;;;;;;;5.75;3.80;;;;;;;6.71;57.57;101957.47;4937891;29;20048;-51
2021/05/03 04:41:02;;;;;;;7.50;3.72;;;;;;;6.66;57.70;101959.97;4937425;29;20052;-54
2021/05/03 04:43:30;;;;;;;5.45;3.35;;;;;;;6.64;58.06;101962.06;4937389;29;20488;-53
2021/05/03 04:45:58;;;;;;;6.10;4.10;;;;;;;6.70;59.46;101963.09;4937388;29;20052;-53
2021/05/03 04:48:27;;;;;;;6.32;3.67;;;;;;;6.70;58.75;101966.63;4937470;29;20483;-55
2021/05/03 04:50:57;;;;;;;9.20;4.30;;;;;;;6.65;58.24;101960.19;4937130;29;20487;-55
2021/05/03 04:53:24;;;;;;;7.38;4.25;;;;;;;6.60;58.19;101961.66;4937544;29;20516;-55
2021/05/03 04:55:52;;;;;;;7.18;3.97;;;;;;;6.58;58.59;101963.75;4937379;29;20047;-54
2021/05/03 04:58:19;;;;;;;8.15;4.38;;;;;;;6.58;58.54;101961.03;4936422;29;20043;-53
2021/05/03 05:00:47;;;;;;;8.18;4.20;;;;;;;6.57;58.65;101963.97;4936779;29;20048;-54
2021/05/03 05:03:14;;;;;;;9.02;4.50;;;;;;;6.56;58.94;101970.41;4937350;29;20118;-53
2021/05/03 05:05:41;;;;;;;7.15;4.25;;;;;;;6.54;58.69;101967.06;4937114;29;20075;-53
2021/05/03 05:08:08;;;;;;;7.30;3.90;;;;;;;6.62;59.20;101964.16;4937442;29;20063;-53
2021/05/03 05:10:36;;;;;;;7.18;4.10;;;;;;;6.61;58.87;101954.34;4937060;29;20047;-54
2021/05/03 05:13:03;;;;;;;8.00;3.97;;;;;;;6.58;58.62;101958.31;4937217;29;20051;-52
2021/05/03 05:15:30;;;;;;;5.80;3.90;;;;;;;6.61;59.06;101957.06;4936497;29;20106;-54
2021/05/03 05:17:58;;;;;;;8.93;4.20;;;;;;;6.66;58.95;101953.72;4937027;29;20056;-54
2021/05/03 05:20:26;;;;;;;6.80;3.95;;;;;;;6.69;58.66;101959.56;4936680;29;20071;-53
2021/05/03 05:22:53;;;;;;;7.63;4.38;;;;;;;6.68;58.74;101957.03;4937006;29;20058;-52
2021/05/03 05:25:21;;;;;;;7.70;4.32;;;;;;;6.69;58.78;101958.72;4937022;29;20046;-54
2021/05/03 05:27:48;;;;;;;6.93;3.92;;;;;;;6.75;59.54;101958.69;4936420;29;20407;-53
2021/05/03 05:30:16;;;;;;;10.95;4.32;;;;;;;6.75;58.65;101960.56;4936172;29;20106;-55
2021/05/03 05:32:43;;;;;;;7.95;4.03;;;;;;;6.75;59.17;101960.56;4936455;29;20079;-52
2021/05/03 05:35:11;;;;;;;9.27;4.57;;;;;;;6.71;58.65;101962.88;4936716;29;20043;-55
2021/05/03 05:37:38;;;;;;;9.13;5.03;;;;;;;6.73;58.53;101966.19;4936140;29;20052;-53
2021/05/03 05:40:06;;;;;;;6.32;3.88;;;;;;;6.76;59.14;101959.53;4935749;29;20392;-53
2021/05/03 05:42:33;;;;;;;7.40;4.20;;;;;;;6.80;58.94;101961.56;4935806;29;20055;-53
2021/05/03 05:45:01;;;;;;;7.50;3.97;;;;;;;7.06;61.00;101958.97;4935436;29;20411;-53
2021/05/03 05:47:28;;;;;;;4.03;2.03;;;;;;;7.16;63.91;101957.44;4936808;29;20051;-53
2021/05/03 05:49:55;;;;;;;4.55;3.30;;;;;;;7.15;59.80;101963.09;4935569;29;20067;-54
2021/05/03 05:52:22;;;;;;;6.80;3.85;;;;;;;7.17;60.17;101950.97;4935647;29;20511;-52
2021/05/03 05:54:50;;;;;;;5.50;3.15;;;;;;;7.15;59.84;101953.06;4935411;29;20047;-52
2021/05/03 05:57:17;;;;;;;7.45;3.97;;;;;;;7.23;59.92;101950.09;4935968;29;20047;-55
2021/05/03 05:59:44;;;;;;;5.55;3.55;;;;;;;7.29;60.85;101955.69;4935402;29;20050;-53
2021/05/03 06:02:11;;;;;;;8.45;3.15;;;;;;;7.21;58.39;101948.66;4935664;29;20066;-55
2021/05/03 06:04:38;;;;;;;7.78;3.30;;;;;;;7.31;60.44;101949.03;4935995;29;20380;-55
2021/05/03 06:07:06;;;;;;;7.05;3.85;;;;;;;7.27;57.95;101944.25;4936092;29;20044;-52
2021/05/03 06:09:51;;;;;;;9.75;4.80;;;;;;;7.35;59.41;101947.53;4935721;29;20048;-55
2021/05/03 06:12:18;;;;;;;7.75;4.18;;;;;;;7.34;59.05;101948.59;4936072;29;20044;-53
2021/05/03 06:14:45;;;;;;;7.10;4.07;;;;;;;7.32;59.02;101947.16;4935561;29;20558;-54
2021/05/03 06:17:15;;;;;;;7.32;3.97;;;;;;;7.32;59.25;101944.44;4935771;29;20055;-53
2021/05/03 06:19:50;;;;;;;6.03;3.78;;;;;;;7.37;59.82;101947.31;4935574;29;20040;-52
2021/05/03 06:22:17;;;;;;;8.07;3.83;;;;;;;7.30;58.30;101951.94;4935935;29;20043;-53
2021/05/03 06:24:46;;;;;;;7.85;3.90;;;;;;;7.21;57.90;101951.38;4936267;29;20099;-55
2021/05/03 06:27:13;;;;;;;11.38;4.20;;;;;;;7.17;57.94;101945.56;4936214;29;20056;-55
2021/05/03 06:29:40;;;;;;;5.78;2.95;;;;;;;7.34;61.01;101950.47;4935999;29;20051;-54
2021/05/03 06:32:08;;;;;;;11.85;6.75;;;;;;;7.47;58.77;101945.75;4935951;29;20047;-54
2021/05/03 06:34:37;;;;;;;6.40;3.25;;;;;;;7.42;57.35;101950.19;4935495;29;20052;-52
2021/05/03 06:37:07;;;;;;;7.00;3.72;;;;;;;7.54;58.94;101953.03;4935407;29;20051;-55
2021/05/03 06:39:35;;;;;;;9.90;4.70;;;;;;;7.57;56.96;101955.31;4934967;29;20073;-53
2021/05/03 06:42:02;;;;;;;8.13;3.10;;;;;;;7.67;57.92;101959.19;4934682;29;20503;-55
2021/05/03 06:44:29;;;;;;;7.32;3.38;;;;;;;7.66;58.10;101946.66;4935389;29;20051;-56
2021/05/03 06:46:58;;;;;;;10.45;4.53;;;;;;;7.61;55.78;101953.81;4935086;29;20172;-56
2021/05/03 06:49:26;;;;;;;8.77;4.57;;;;;;;7.67;55.92;101955.63;4933905;29;20804;-53
2021/05/03 06:51:53;;;;;;;7.97;4.63;;;;;;;7.76;55.96;101946.19;4935190;29;20107;-56
2021/05/03 06:54:21;;;;;;;9.93;4.15;;;;;;;7.67;55.44;101945.63;4935150;29;20048;-55
2021/05/03 06:56:48;;;;;;;7.07;2.40;;;;;;;8.11;55.96;101945.66;4934492;29;20071;-53
2021/05/03 06:59:15;;;;;;;10.88;4.35;;;;;;;8.01;52.67;101940.75;4934976;29;20478;-54
2021/05/03 07:01:43;;;;;;;4.00;2.35;;;;;;;8.03;57.92;101949.50;4934903;29;20043;-57
2021/05/03 07:04:10;;;;;;;5.55;3.28;;;;;;;8.76;55.70;101949.78;4935009;29;20055;-56
2021/05/03 07:06:37;;;;;;;6.70;3.53;;;;;;;8.51;51.67;101940.69;4934613;29;20083;-55
2021/05/03 07:09:08;;;;;;;8.38;3.10;;;;;;;8.37;54.90;101944.56;4934063;29;20036;-51
2021/05/03 07:11:36;;;;;;;14.02;3.33;;;;;;;8.42;53.01;101942.03;4934212;29;20398;-55
2021/05/03 07:14:04;;;;;;;10.30;4.03;;;;;;;8.40;52.85;101936.00;4934452;29;20111;-53
2021/05/03 07:16:31;;;;;;;9.45;4.20;;;;;;;8.25;51.64;101940.91;4934609;29;20051;-55
2021/05/03 07:18:58;;;;;;;11.35;4.65;;;;;;;8.24;52.13;101922.97;4934377;29;20051;-58
2021/05/03 07:21:26;;;;;;;9.98;4.72;;;;;;;8.27;52.88;101933.38;4934548;29;20044;-55
2021/05/03 07:23:53;;;;;;;12.65;4.72;;;;;;;8.28;52.31;101933.16;4934487;29;20047;-57
2021/05/03 07:26:20;;;;;;;6.85;4.22;;;;;;;8.34;54.18;101934.13;4934414;29;20052;-56
2021/05/03 07:28:48;;;;;;;8.80;5.07;;;;;;;8.27;52.00;101923.38;4934585;29;20193;-53
2021/05/03 07:31:15;;;;;;;13.93;6.00;;;;;;;8.23;52.71;101926.75;4934644;29;20087;-56
2021/05/03 07:33:42;;;;;;;13.90;6.43;;;;;;;8.27;53.18;101927.94;4934805;29;20048;-58
2021/05/03 07:36:09;;;;;;;35.80;7.50;;;;;;;8.41;58.13;101923.25;4934429;29;20040;-56
2021/05/03 07:38:36;;;;;;;19.35;7.63;;;;;;;8.80;55.11;101927.34;4934715;29;20087;-54
2021/05/03 07:41:04;;;;;;;21.02;7.75;;;;;;;9.04;52.64;101916.59;4933746;29;20047;-55
2021/05/03 07:43:32;;;;;;;27.70;7.57;;;;;;;9.16;55.68;101925.59;4934374;29;20073;-53
2021/05/03 07:46:02;;;;;;;17.45;7.90;;;;;;;9.00;51.67;101918.13;4934708;29;20050;-54
2021/05/03 07:48:30;;;;;;;19.10;8.27;;;;;;;8.92;52.93;101919.25;4934499;29;20047;-53
2021/05/03 07:50:57;;;;;;;19.70;8.02;;;;;;;8.90;51.99;101916.78;4933883;29;20168;-53
2021/05/03 07:53:24;;;;;;;31.83;7.57;;;;;;;9.32;55.85;101919.50;4934212;29;20059;-55
2021/05/03 07:55:51;;;;;;;13.02;8.77;;;;;;;9.38;52.18;101917.78;4934153;29;20427;-54
2021/05/03 07:58:18;;;;;;;19.50;8.55;;;;;;;9.33;51.59;101904.88;4917880;29;20039;-58
2021/05/03 08:00:47;;;;;;;12.68;8.57;;;;;;;9.04;50.75;101905.72;4934399;29;20043;-54
2021/05/03 08:03:16;;;;;;;13.30;8.77;;;;;;;9.03;52.88;101904.06;4934302;29;20051;-55
2021/05/03 08:05:45;;;;;;;17.85;8.07;;;;;;;8.88;51.48;101905.31;4934102;29;20412;-56
2021/05/03 08:08:12;;;;;;;16.70;8.50;;;;;;;8.94;53.73;101907.09;4934353;29;20036;-53
2021/05/03 08:10:39;;;;;;;13.70;8.07;;;;;;;9.03;52.41;101904.88;4932437;29;20060;-55
2021/05/03 08:13:06;;;;;;;20.48;9.27;;;;;;;9.04;52.99;101906.53;4934352;29;20035;-55
2021/05/03 08:15:34;;;;;;;21.77;6.35;;;;;;;9.80;55.45;101899.47;4934374;29;20048;-56
2021/05/03 08:18:02;;;;;;;21.05;8.75;;;;;;;9.92;51.81;101893.22;4934010;29;20435;-50
2021/05/03 08:20:29;;;;;;;26.10;6.95;;;;;;;10.28;52.28;101896.72;4937455;29;20142;-54
2021/05/03 08:22:56;;;;;;;20.02;7.80;;;;;;;10.07;50.64;101898.16;4937629;29;20070;-55
2021/05/03 08:25:24;;;;;;;11.90;7.72;;;;;;;9.85;49.06;101895.22;4937706;29;20047;-54
2021/05/03 08:27:51;;;;;;;21.50;7.15;;;;;;;9.63;50.51;101890.34;4937729;29;20048;-55
2021/05/03 08:30:18;;;;;;;14.07;8.70;;;;;;;9.72;48.56;101894.38;4937645;29;20051;-55
2021/05/03 08:32:45;;;;;;;11.95;7.90;;;;;;;9.53;48.18;101898.28;4936846;29;20106;-54
2021/05/03 08:35:13;;;;;;;20.10;7.47;;;;;;;9.47;49.35;101894.59;4952234;29;20176;-56
2021/05/03 08:37:40;;;;;;;13.77;8.40;;;;;;;9.40;48.74;101888.41;4937162;29;20056;-54
2021/05/03 08:40:08;;;;;;;20.13;6.88;;;;;;;9.72;51.38;101894.38;4936856;29;20040;-53
2021/05/03 08:42:35;;;;;;;11.50;7.78;;;;;;;9.68;48.35;101885.03;4936118;29;20054;-55
2021/05/03 08:45:03;;;;;;;12.85;8.45;;;;;;;9.60;47.89;101879.94;4937449;29;20044;-55
2021/05/03 08:47:35;;;;;;;10.95;7.72;;;;;;;9.51;47.06;101886.78;4937060;29;20482;-53
2021/05/03 08:50:10;;;;;;;13.85;7.82;;;;;;;9.55;48.95;101875.22;4936997;29;20054;-55
2021/05/03 08:52:52;;;;;;;13.65;7.78;;;;;;;9.64;49.06;101874.84;4936756;29;20570;-53
2021/05/03 08:55:19;;;;;;;15.07;7.50;;;;;;;9.72;48.45;101869.91;4937298;29;20043;-50
2021/05/03 08:57:46;;;;;;;11.57;8.20;;;;;;;9.71;47.34;101865.50;4937292;29;20040;-52
2021/05/03 09:00:15;;;;;;;12.73;8.05;;;;;;;9.75;47.67;101868.59;4937267;29;20039;-54
2021/05/03 09:02:46;;;;;;;16.25;7.78;;;;;;;9.75;48.95;101874.03;4937093;29;20043;-55
2021/05/03 09:05:14;;;;;;;14.98;7.35;;;;;;;9.96;49.84;101859.00;4937151;29;20074;-55
2021/05/03 09:07:51;;;;;;;14.32;6.82;;;;;;;10.10;49.31;101860.41;4936480;29;20055;-55
2021/05/03 09:10:20;;;;;;;14.85;5.70;;;;;;;10.54;51.97;101860.78;4936889;29;20036;-56
2021/05/03 09:12:48;;;;;;;12.98;6.38;;;;;;;10.39;46.14;101861.31;4937019;29;20050;-54
2021/05/03 09:15:24;;;;;;;13.25;7.35;;;;;;;10.42;48.50;101868.19;4936877;29;20826;-55
2021/05/03 09:17:52;;;;;;;17.33;6.82;;;;;;;10.47;47.38;101865.56;4936732;29;20087;-54
2021/05/03 09:20:22;;;;;;;12.73;6.93;;;;;;;10.52;46.21;101867.56;4935263;29;20055;-50
2021/05/03 09:22:53;;;;;;;13.15;7.13;;;;;;;10.34;45.27;101860.38;4936284;29;20495;-53
2021/05/03 09:25:26;;;;;;;12.90;7.90;;;;;;;10.25;44.99;101865.34;4935459;29;20396;-53
2021/05/03 09:28:05;;;;;;;12.75;6.45;;;;;;;10.23;45.69;101865.56;4935039;29;20054;-54
2021/05/03 09:30:41;;;;;;;11.73;8.18;;;;;;;10.23;45.61;101859.31;4931895;29;20055;-56
2021/05/03 09:33:23;;;;;;;12.30;7.93;;;;;;;10.28;45.68;101855.88;4934496;29;20380;-55
2021/05/03 09:35:59;;;;;;;15.82;8.18;;;;;;;10.31;45.24;101844.50;4935901;29;20043;-54
2021/05/03 09:38:38;;;;;;;11.88;7.70;;;;;;;10.38;46.03;101850.66;4936209;29;20100;-54
2021/05/03 09:41:17;;;;;;;13.43;8.50;;;;;;;10.45;44.48;101843.16;4935721;29;20411;-52
2021/05/03 09:43:45;;;;;;;11.60;8.00;;;;;;;10.45;44.74;101845.91;4935818;29;20499;-53
2021/05/03 09:46:35;;;;;;;14.43;8.50;;;;;;;10.48;44.24;101841.84;4935359;29;20047;-55
2021/05/03 09:49:08;;;;;;;9.32;5.50;;;;;;;10.47;44.49;101838.31;4950916;29;20107;-53
2021/05/03 09:51:40;;;;;;;12.88;8.02;;;;;;;10.51;44.72;101838.63;4935485;29;20103;-53
2021/05/03 09:54:08;;;;;;;12.40;8.00;;;;;;;10.57;44.79;101832.22;4936030;29;20044;-53
2021/05/03 09:56:51;;;;;;;13.73;6.72;;;;;;;10.71;44.67;101822.69;4934764;29;20529;-52
2021/05/03 09:59:29;;;;;;;13.98;4.43;;;;;;;10.79;48.31;101825.00;4935601;29;20048;-54
2021/05/03 10:02:05;;;;;;;11.27;7.93;;;;;;;10.88;44.73;101828.19;4935203;29;20039;-55
2021/05/03 10:04:34;;;;;;;11.23;5.78;;;;;;;10.87;44.03;101813.72;4935899;29;20455;-53
2021/05/03 10:07:02;;;;;;;13.35;7.55;;;;;;;10.97;44.08;101810.34;4935617;29;20086;-55
2021/05/03 10:09:31;;;;;;;10.88;7.95;;;;;;;10.94;43.32;101799.91;4935994;29;20067;-56
2021/05/03 10:11:58;;;;;;;12.65;7.03;;;;;;;11.12;44.27;101798.03;4936037;29;20052;-54
2021/05/03 10:14:25;;;;;;;13.18;7.82;;;;;;;11.12;43.60;101789.88;4935868;29;20095;-56
2021/05/03 10:16:53;;;;;;;10.60;5.82;;;;;;;11.14;43.81;101787.72;4949472;29;20098;-50
2021/05/03 10:19:21;;;;;;;10.70;6.80;;;;;;;11.14;43.09;101777.63;4933616;29;20057;-55
2021/05/03 10:21:48;;;;;;;14.15;7.10;;;;;;;11.11;43.74;101777.28;4947438;29;20443;-53
2021/05/03 10:24:17;;;;;;;13.13;8.50;;;;;;;11.11;42.27;101783.56;4944999;29;20047;-54
2021/05/03 10:26:46;;;;;;;12.02;8.73;;;;;;;11.07;42.46;101780.50;4921048;29;20063;-53
2021/05/03 10:29:29;;;;;;;11.52;8.50;;;;;;;11.04;42.77;101772.84;4935840;29;20376;-57
2021/05/03 10:31:59;;;;;;;13.57;8.68;;;;;;;11.04;42.39;101772.84;4935625;29;20467;-55
2021/05/03 10:34:36;;;;;;;12.18;8.18;;;;;;;11.05;42.11;101774.47;4935056;29;20118;-54
2021/05/03 10:37:04;;;;;;;12.73;7.90;;;;;;;11.07;42.27;101769.59;4922905;29;20090;-53
2021/05/03 10:39:35;;;;;;;11.80;8.93;;;;;;;11.07;41.87;101761.41;4934089;29;20103;-54
2021/05/03 10:42:11;;;;;;;12.63;8.57;;;;;;;11.15;42.52;101770.25;4935319;29;20062;-54
2021/05/03 10:45:21;;;;;;;10.43;7.10;;;;;;;11.25;42.40;101757.59;4935365;29;20488;-52
2021/05/03 10:47:53;;;;;;;16.45;7.82;;;;;;;11.51;42.43;101757.97;4949989;29;20099;-55
2021/05/03 10:52:54;;;;;;;12.05;5.20;;;;;;;11.57;41.20;101747.94;4935420;29;20040;-55
2021/05/03 10:55:22;;;;;;;12.80;6.80;;;;;;;11.58;40.11;101747.72;4935218;29;20056;-55
2021/05/03 10:57:59;;;;;;;11.52;5.43;;;;;;;11.57;43.04;101742.50;4934071;29;20047;-53
2021/05/03 11:00:39;;;;;;;10.05;4.88;;;;;;;11.67;43.41;101731.72;4934977;29;20075;-56
2021/05/03 11:03:06;;;;;;;12.68;7.38;;;;;;;11.62;40.21;101734.41;4949214;29;20067;-54
2021/05/03 11:05:41;;;;;;;14.65;8.05;;;;;;;11.51;39.64;101734.25;4934534;29;20529;-54
2021/05/03 11:08:09;;;;;;;12.38;6.30;;;;;;;11.54;45.99;101721.16;4934851;29;20047;-54
2021/05/03 11:11:06;;;;;;;11.30;6.60;;;;;;;11.63;39.13;101720.47;4934699;29;20083;-53
2021/05/03 11:13:39;;;;;;;10.05;7.30;;;;;;;11.55;38.55;101710.00;4934410;29;20060;-55
2021/05/03 11:16:25;;;;;;;10.13;5.57;;;;;;;11.73;44.06;101712.41;4934727;29;20483;-57
2021/05/03 11:18:54;;;;;;;9.73;5.78;;;;;;;11.70;41.88;101715.66;4934321;29;20055;-55
2021/05/03 11:21:45;;;;;;;10.18;5.60;;;;;;;11.85;40.54;101706.81;4934355;29;20479;-51
2021/05/03 11:24:39;;;;;;;10.02;5.20;;;;;;;11.82;42.46;101706.53;4934787;29;20051;-49
2021/05/03 11:27:20;;;;;;;9.70;5.18;;;;;;;11.78;39.71;101692.53;4935020;29;20095;-54
2021/05/03 11:29:53;;;;;;;14.85;7.65;;;;;;;11.78;39.21;101702.66;4932027;29;20075;-54
2021/05/03 11:32:32;;;;;;;13.05;7.18;;;;;;;11.81;39.87;101700.25;4934219;29;20131;-53
2021/05/03 11:37:39;;;;;;;15.40;7.20;;;;;;;11.92;41.04;101684.81;4933148;29;20044;-54
2021/05/03 11:45:28;;;;;;;23.25;3.85;;;;;;;12.29;47.01;101674.03;4934332;29;20047;-53
2021/05/03 11:47:57;;;;;;;12.15;5.88;;;;;;;12.50;38.23;101668.72;4949096;29;20071;-53
2021/05/03 11:50:26;;;;;;;9.65;3.40;;;;;;;12.52;43.62;101672.84;4934162;29;20059;-52
2021/05/03 11:52:58;;;;;;;6.35;3.03;;;;;;;12.73;46.71;101670.31;4934632;29;20048;-58
2021/05/03 11:55:26;;;;;;;8.38;5.57;;;;;;;12.56;36.92;101679.47;4938288;29;20082;-55
2021/05/03 11:57:53;;;;;;;9.93;6.72;;;;;;;12.33;37.09;101674.31;4953318;29;20040;-52
2021/05/03 12:00:22;;;;;;;10.05;6.80;;;;;;;12.19;37.44;101665.72;4938899;29;20383;-54
2021/05/03 12:03:01;;;;;;;10.23;5.95;;;;;;;12.09;37.93;101668.34;4921786;29;20103;-54
2021/05/03 12:05:29;;;;;;;11.02;6.95;;;;;;;12.07;37.64;101670.50;4939391;29;20044;-53
2021/05/03 12:07:56;;;;;;;9.23;4.82;;;;;;;12.27;39.96;101665.25;4940198;29;20048;-53